Time;durP1;ratioP1;P1;durP2;ratioP2;P2;SDS_P1;SDS_P2;PMS_P1;PMS_P2;Temp;Humidity;BMP_temperature;BMP_pressure;BME280_temperature;BME280_humidity;BME280_pressure;Samples;Min_cycle;Max_cycle;Signal;HPM_P1;HPM_P2
2023/02/25 00:00:43;;;;;;;;;26.25;21.25;;;;;9.47;53.42;100596.75;6278853;22;46021;-59
2023/02/25 00:03:09;;;;;;;;;24.00;21.75;;;;;9.47;53.39;100600.28;6278920;22;45243;-59
2023/02/25 00:05:38;;;;;;;;;30.75;22.25;;;;;9.46;53.09;100598.53;6279214;22;45309;-58
2023/02/25 00:08:03;;;;;;;;;28.25;23.00;;;;;9.44;53.18;100598.53;6278384;22;45209;-59
2023/02/25 00:10:29;;;;;;;;;33.25;24.25;;;;;9.42;53.24;100595.06;6278926;22;46128;-58
2023/02/25 00:12:54;;;;;;;;;24.00;18.50;;;;;9.39;53.01;100596.84;6278832;22;45304;-59
2023/02/25 00:15:19;;;;;;;;;24.75;20.50;;;;;9.40;53.53;100604.69;6279191;22;45189;-58
2023/02/25 00:17:47;;;;;;;;;25.00;19.50;;;;;9.40;53.14;100601.22;6277857;22;45339;-58
2023/02/25 00:20:13;;;;;;;;;29.50;22.25;;;;;9.33;53.48;100592.53;6278570;22;46452;-58
2023/02/25 00:22:38;;;;;;;;;26.25;22.50;;;;;9.35;53.48;100603.88;6278890;22;45170;-58
2023/02/25 00:25:04;;;;;;;;;24.25;22.25;;;;;9.35;53.46;100598.66;6279006;22;45402;-59
2023/02/25 00:27:30;;;;;;;;;36.00;27.75;;;;;9.33;53.27;100603.03;6278887;22;45149;-58
2023/02/25 00:29:55;;;;;;;;;26.50;21.00;;;;;9.31;53.48;100606.56;6279074;22;45233;-59
2023/02/25 00:32:22;;;;;;;;;23.75;20.50;;;;;9.32;53.57;100605.69;6278429;22;45320;-59
2023/02/25 00:34:47;;;;;;;;;19.75;15.25;;;;;9.30;53.57;100602.22;6279245;22;45233;-59
2023/02/25 00:37:13;;;;;;;;;20.25;15.00;;;;;9.25;53.65;100607.50;6278697;22;45261;-59
2023/02/25 00:39:42;;;;;;;;;22.00;15.75;;;;;9.25;53.63;100603.13;6278991;22;45300;-59
2023/02/25 00:42:08;;;;;;;;;18.25;15.25;;;;;9.24;53.57;100605.75;6278149;22;45320;-59
2023/02/25 00:44:35;;;;;;;;;16.25;14.00;;;;;9.22;53.68;100610.13;6278665;22;45240;-59
2023/02/25 00:47:01;;;;;;;;;21.25;17.50;;;;;9.18;54.16;100617.19;6278000;22;45429;-59
2023/02/25 00:49:26;;;;;;;;;16.50;15.00;;;;;9.19;53.54;100613.66;6251079;22;47162;-59
2023/02/25 00:51:52;;;;;;;;;15.50;13.50;;;;;9.18;53.67;100600.59;6278919;22;45146;-58
2023/02/25 00:54:17;;;;;;;;;20.00;16.00;;;;;9.16;53.67;100608.47;6251526;22;45290;-58
2023/02/25 00:56:42;;;;;;;;;17.50;16.25;;;;;9.17;53.71;100609.31;6278910;22;45380;-58
2023/02/25 00:59:08;;;;;;;;;17.50;15.75;;;;;9.17;53.64;100614.56;6278522;22;46086;-58
2023/02/25 01:01:33;;;;;;;;;14.25;12.50;;;;;9.17;53.65;100612.84;6278375;22;45332;-58
2023/02/25 01:03:59;;;;;;;;;12.75;11.25;;;;;9.17;53.70;100615.47;6279178;22;45404;-58
2023/02/25 01:06:26;;;;;;;;;18.50;13.50;;;;;9.17;53.82;100610.22;6278846;22;45392;-59
2023/02/25 01:08:52;;;;;;;;;15.50;14.25;;;;;9.17;53.89;100609.31;6278489;22;45336;-58
2023/02/25 01:11:23;;;;;;;;;11.00;8.50;;;;;9.14;53.78;100620.72;6278347;22;45225;-58
2023/02/25 01:13:50;;;;;;;;;10.25;10.25;;;;;9.14;53.70;100614.63;6278571;22;45299;-58
2023/02/25 01:16:20;;;;;;;;;16.00;12.50;;;;;9.16;53.90;100610.25;6278460;22;45440;-58
2023/02/25 01:18:46;;;;;;;;;15.25;9.75;;;;;9.16;54.02;100612.84;6278105;22;46455;-58
2023/02/25 01:21:17;;;;;;;;;12.25;10.50;;;;;9.15;53.79;100619.84;6278557;22;45260;-59
2023/02/25 01:23:48;;;;;;;;;11.50;9.00;;;;;9.15;53.93;100611.97;6251071;22;45277;-59
2023/02/25 01:26:14;;;;;;;;;15.50;11.75;;;;;9.16;53.92;100620.72;6278162;22;45466;-59
2023/02/25 01:28:41;;;;;;;;;16.25;8.00;;;;;9.15;54.16;100614.59;6278479;22;45219;-59
2023/02/25 01:31:09;;;;;;;;;8.50;7.00;;;;;9.16;54.12;100613.72;6278532;22;45255;-59
2023/02/25 01:33:37;;;;;;;;;15.75;9.50;;;;;9.16;53.97;100616.34;6278236;22;45255;-59
2023/02/25 01:36:06;;;;;;;;;17.00;12.75;;;;;9.17;54.10;100620.69;6278423;22;45264;-59
2023/02/25 01:38:32;;;;;;;;;13.25;12.50;;;;;9.17;54.03;100612.84;6278144;22;45338;-59
2023/02/25 01:40:59;;;;;;;;;9.50;9.50;;;;;9.17;54.03;100619.81;6250895;22;45308;-59
2023/02/25 01:43:25;;;;;;;;;9.50;8.50;;;;;9.17;53.94;100622.44;6278950;22;45200;-59
2023/02/25 01:45:53;;;;;;;;;12.25;8.25;;;;;9.14;53.93;100615.47;6278621;22;45223;-59
2023/02/25 01:48:21;;;;;;;;;8.50;8.50;;;;;9.17;53.99;100614.56;6277513;22;46094;-58
2023/02/25 01:50:53;;;;;;;;;11.25;9.25;;;;;9.19;53.92;100615.44;6278150;22;45244;-59
2023/02/25 01:53:26;;;;;;;;;9.50;7.50;;;;;9.20;54.15;100615.41;6276542;22;45342;-59
2023/02/25 01:55:53;;;;;;;;;13.00;8.50;;;;;9.20;53.88;100610.16;6277955;22;45153;-59
2023/02/25 01:58:20;;;;;;;;;7.75;7.00;;;;;9.19;53.97;100608.44;6277911;22;46364;-59
2023/02/25 02:00:46;;;;;;;;;12.75;9.00;;;;;9.21;53.87;100611.06;6276445;22;45244;-59
2023/02/25 02:03:15;;;;;;;;;10.25;9.50;;;;;9.22;54.15;100613.66;6278402;22;45423;-59
2023/02/25 02:06:09;;;;;;;;;10.00;8.00;;;;;9.22;54.13;100613.66;6278687;22;45185;-59
2023/02/25 02:08:35;;;;;;;;;16.25;9.25;;;;;9.21;54.21;100609.28;6277693;22;45446;-59
2023/02/25 02:11:01;;;;;;;;;8.00;7.00;;;;;9.19;53.99;100597.94;6277740;22;45206;-58
2023/02/25 02:13:28;;;;;;;;;11.25;8.50;;;;;9.24;54.00;100606.66;6278247;22;45169;-59
2023/02/25 02:16:22;;;;;;;;;8.75;6.00;;;;;9.26;53.90;100611.88;6278335;22;45424;-59
2023/02/25 02:18:55;;;;;;;;;9.00;6.25;;;;;9.22;53.95;100602.28;6232623;22;46103;-59
2023/02/25 02:21:39;;;;;;;;;8.50;5.75;;;;;9.26;53.98;100617.13;6277715;22;45167;-59
2023/02/25 02:24:10;;;;;;;;;8.75;6.00;;;;;9.25;53.95;100607.50;6276743;22;45364;-59
2023/02/25 02:26:48;;;;;;;;;6.00;5.00;;;;;9.24;53.97;100606.66;6278018;22;45196;-59
2023/02/25 02:29:58;;;;;;;;;8.75;5.75;;;;;9.23;53.88;100602.28;6278398;22;46479;-59
2023/02/25 02:32:48;;;;;;;;;8.25;6.00;;;;;9.23;54.16;100604.03;6213212;22;45316;-59
2023/02/25 02:35:27;;;;;;;;;9.25;5.00;;;;;9.21;53.87;100593.56;6277280;22;45106;-59
2023/02/25 02:38:00;;;;;;;;;7.00;5.50;;;;;9.20;53.85;100597.06;6277736;22;45350;-59
2023/02/25 02:40:36;;;;;;;;;8.00;5.25;;;;;9.20;53.91;100594.44;6277825;22;46103;-59
2023/02/25 02:43:05;;;;;;;;;6.25;5.50;;;;;9.18;54.10;100595.34;6278143;22;45300;-59
2023/02/25 02:45:42;;;;;;;;;9.50;5.75;;;;;9.17;54.08;100596.22;6276807;22;45297;-59
2023/02/25 02:48:14;;;;;;;;;11.25;6.00;;;;;9.14;54.02;100597.13;6275341;22;45253;-59
2023/02/25 02:50:45;;;;;;;;;8.50;6.00;;;;;9.11;54.25;100600.66;6275103;22;46035;-59
2023/02/25 02:53:17;;;;;;;;;5.00;5.00;;;;;9.10;53.83;100604.13;6277339;22;45213;-59
2023/02/25 02:55:46;;;;;;;;;10.00;5.75;;;;;9.07;53.90;100603.34;6274188;22;45439;-59
2023/02/25 02:58:24;;;;;;;;;5.25;5.00;;;;;9.07;54.07;100603.34;6277219;22;45411;-59
2023/02/25 03:00:57;;;;;;;;;8.75;7.75;;;;;9.04;54.17;100604.22;6277914;22;45381;-59
2023/02/25 03:03:35;;;;;;;;;6.25;5.25;;;;;8.94;54.17;100592.97;6277842;22;45337;-59
2023/02/25 03:06:03;;;;;;;;;8.00;7.00;;;;;8.99;54.25;100603.38;6277755;22;45323;-59
2023/02/25 03:08:34;;;;;;;;;8.75;7.25;;;;;8.96;54.05;100600.81;6277635;22;45473;-59
2023/02/25 03:10:59;;;;;;;;;8.00;7.25;;;;;8.94;54.44;100599.94;6278465;22;45950;-59
2023/02/25 03:13:25;;;;;;;;;12.00;7.25;;;;;8.93;54.19;100609.56;6279139;22;45310;-59
2023/02/25 03:15:51;;;;;;;;;10.25;7.75;;;;;8.89;54.02;100606.97;6279501;22;45333;-59
2023/02/25 03:18:22;;;;;;;;;7.25;7.25;;;;;8.88;54.30;100611.38;6278105;22;45257;-59
2023/02/25 03:20:49;;;;;;;;;12.75;8.75;;;;;8.86;54.13;100613.13;6279078;22;46117;-59
2023/02/25 03:23:38;;;;;;;;;14.25;9.00;;;;;8.85;54.14;100613.16;6278141;22;45234;-59
2023/02/25 03:26:11;;;;;;;;;10.75;7.25;;;;;8.82;54.18;100611.41;6278965;22;45189;-59
2023/02/25 03:28:36;;;;;;;;;8.25;6.00;;;;;8.80;54.30;100612.31;6278877;22;45336;-59
2023/02/25 03:31:02;;;;;;;;;10.50;7.00;;;;;8.80;54.18;100609.69;6279217;22;45245;-59
2023/02/25 03:33:35;;;;;;;;;11.25;7.25;;;;;8.76;54.23;100614.94;6278415;22;45311;-59
2023/02/25 03:36:07;;;;;;;;;9.75;6.00;;;;;8.78;54.28;100612.34;6279522;22;45197;-59
2023/02/25 03:38:36;;;;;;;;;9.00;6.50;;;;;8.76;54.53;100612.34;6278887;22;45277;-59
2023/02/25 03:41:06;;;;;;;;;8.00;7.00;;;;;8.73;54.29;100608.88;6276987;22;47272;-59
2023/02/25 03:43:37;;;;;;;;;4.50;4.50;;;;;8.73;54.43;100624.59;6277170;22;45233;-59
2023/02/25 03:46:05;;;;;;;;;6.50;6.50;;;;;8.70;54.22;100616.75;6279232;22;45240;-59
2023/02/25 03:48:34;;;;;;;;;10.50;6.00;;;;;8.68;54.33;100618.50;6278401;22;45398;-59
2023/02/25 03:51:01;;;;;;;;;5.50;3.75;;;;;8.67;54.20;100619.44;6279109;22;45338;-58
2023/02/25 03:53:28;;;;;;;;;6.75;5.00;;;;;8.65;54.33;100614.16;6279096;22;45248;-59
2023/02/25 03:55:56;;;;;;;;;6.00;4.00;;;;;8.62;54.20;100615.06;6278766;22;45106;-59
2023/02/25 03:58:23;;;;;;;;;5.75;2.75;;;;;8.61;54.47;100620.31;6250992;22;45416;-59
2023/02/25 04:00:55;;;;;;;;;4.75;4.75;;;;;8.55;54.38;100613.41;6250897;22;45356;-59
2023/02/25 04:03:21;;;;;;;;;10.00;6.75;;;;;8.56;54.41;100624.72;6278963;22;45160;-59
2023/02/25 04:05:47;;;;;;;;;5.25;1.50;;;;;8.54;54.50;100616.91;6277209;22;45263;-59
2023/02/25 04:08:16;;;;;;;;;8.00;4.75;;;;;8.52;54.24;100621.25;6278539;22;45573;-59
2023/02/25 04:10:45;;;;;;;;;4.75;3.75;;;;;8.50;54.57;100624.78;6278599;22;46020;-59
2023/02/25 04:13:13;;;;;;;;;5.00;5.00;;;;;8.48;54.39;100635.28;6279007;22;45364;-59
2023/02/25 04:15:39;;;;;;;;;6.00;5.50;;;;;8.45;54.54;100635.25;6279193;22;45284;-59
2023/02/25 04:18:04;;;;;;;;;9.75;4.00;;;;;8.44;54.59;100646.63;6277484;22;45462;-59
2023/02/25 04:20:30;;;;;;;;;7.00;5.00;;;;;8.42;54.56;100646.63;6278568;22;46946;-59
2023/02/25 04:22:55;;;;;;;;;5.00;5.00;;;;;8.38;54.37;100652.75;6278781;22;45272;-59
2023/02/25 04:25:21;;;;;;;;;10.00;5.25;;;;;8.37;54.35;100656.25;6252039;22;45377;-59
2023/02/25 04:27:46;;;;;;;;;5.00;4.00;;;;;8.36;54.32;100657.13;6278897;22;45365;-59
2023/02/25 04:30:13;;;;;;;;;6.00;4.25;;;;;8.34;54.48;100660.63;6279173;22;45238;-59
2023/02/25 04:32:38;;;;;;;;;10.75;6.75;;;;;8.31;54.46;100653.66;6278647;22;45270;-59
2023/02/25 04:35:06;;;;;;;;;9.25;5.25;;;;;8.30;54.38;100659.78;6278625;22;45189;-59
2023/02/25 04:37:31;;;;;;;;;6.25;5.00;;;;;8.29;54.44;100655.44;6278547;22;45371;-59
2023/02/25 04:39:57;;;;;;;;;4.75;4.75;;;;;8.27;54.35;100660.66;6278826;22;46022;-59
2023/02/25 04:42:22;;;;;;;;;7.00;5.50;;;;;8.26;54.21;100660.69;6278951;22;45185;-59
2023/02/25 04:44:47;;;;;;;;;4.25;4.25;;;;;8.24;54.48;100657.22;6279442;22;45153;-59
2023/02/25 04:47:13;;;;;;;;;7.25;6.75;;;;;8.22;54.46;100665.06;6278522;22;45263;-59
2023/02/25 04:49:43;;;;;;;;;7.25;6.25;;;;;8.19;54.18;100651.13;6278959;22;45264;-59
2023/02/25 04:52:10;;;;;;;;;5.50;3.75;;;;;8.20;54.38;100653.75;6251312;22;45446;-59
2023/02/25 04:54:36;;;;;;;;;6.00;4.00;;;;;8.11;54.43;100645.94;6278954;22;45289;-59
2023/02/25 04:57:01;;;;;;;;;4.00;4.00;;;;;8.18;54.29;100652.03;6278838;22;45218;-59
2023/02/25 04:59:26;;;;;;;;;5.00;3.50;;;;;8.15;54.33;100652.91;6278952;22;46197;-59
2023/02/25 05:01:52;;;;;;;;;6.00;6.00;;;;;8.16;54.25;100643.31;6251606;22;45198;-59
2023/02/25 05:04:17;;;;;;;;;6.25;5.00;;;;;8.10;54.23;100646.81;6279396;22;45188;-59
2023/02/25 05:06:42;;;;;;;;;10.50;6.25;;;;;8.14;54.27;100659.88;6251133;22;45149;-59
2023/02/25 05:09:07;;;;;;;;;8.50;6.00;;;;;8.13;54.21;100650.28;6278437;22;46181;-59
2023/02/25 05:11:33;;;;;;;;;5.75;5.75;;;;;8.12;54.56;100648.53;6278560;22;45174;-59
2023/02/25 05:13:58;;;;;;;;;5.00;5.00;;;;;8.11;54.26;100644.19;6279262;22;45218;-59
2023/02/25 05:16:24;;;;;;;;;4.75;4.75;;;;;8.08;54.60;100653.81;6250964;22;45426;-59
2023/02/25 05:18:50;;;;;;;;;6.50;6.00;;;;;8.07;54.52;100660.78;6278194;22;45484;-59
2023/02/25 05:21:19;;;;;;;;;7.00;4.25;;;;;8.06;54.46;100656.44;6278279;22;45320;-59
2023/02/25 05:23:46;;;;;;;;;6.50;5.75;;;;;8.08;54.54;100659.06;6278964;22;45197;-59
2023/02/25 05:26:14;;;;;;;;;5.00;3.25;;;;;8.04;54.32;100647.72;6278547;22;45439;-59
2023/02/25 05:28:39;;;;;;;;;9.00;6.25;;;;;8.05;54.56;100643.34;6250655;22;47208;-59
2023/02/25 05:31:09;;;;;;;;;6.00;3.75;;;;;8.06;54.46;100647.72;6250893;22;45337;-59
2023/02/25 05:33:36;;;;;;;;;6.00;4.00;;;;;8.05;54.64;100646.84;6278374;22;45231;-59
2023/02/25 05:36:09;;;;;;;;;11.25;6.50;;;;;8.02;54.41;100646.84;6278844;22;45363;-59
2023/02/25 05:38:35;;;;;;;;;5.50;5.25;;;;;8.01;54.42;100654.72;6278642;22;45258;-59
2023/02/25 05:41:01;;;;;;;;;5.75;5.75;;;;;8.01;54.42;100650.34;6278166;22;45217;-59
2023/02/25 05:43:27;;;;;;;;;5.25;4.25;;;;;8.01;54.48;100649.47;6278895;22;45364;-59
2023/02/25 05:45:57;;;;;;;;;6.00;5.50;;;;;7.98;54.51;100656.47;6278321;22;45095;-59
2023/02/25 05:48:23;;;;;;;;;5.00;3.25;;;;;7.94;54.48;100654.75;6250111;22;46863;-59
2023/02/25 05:50:59;;;;;;;;;6.00;3.75;;;;;7.94;54.36;100653.88;6278546;22;45143;-59
2023/02/25 05:53:25;;;;;;;;;9.50;7.25;;;;;7.92;54.64;100655.63;6278927;22;45327;-59
2023/02/25 05:55:50;;;;;;;;;9.00;6.00;;;;;7.88;54.56;100654.78;6278724;22;45228;-59
2023/02/25 05:58:15;;;;;;;;;8.50;6.00;;;;;7.81;54.68;100651.31;6278334;22;45245;-59
2023/02/25 06:00:41;;;;;;;;;4.75;4.00;;;;;7.85;54.48;100660.03;6251501;22;45299;-59
2023/02/25 06:03:06;;;;;;;;;4.75;4.00;;;;;7.85;54.71;100653.91;6278819;22;45213;-59
2023/02/25 06:05:31;;;;;;;;;10.50;5.75;;;;;7.82;54.54;100657.41;6278757;22;45237;-59
2023/02/25 06:07:57;;;;;;;;;5.75;4.75;;;;;7.77;54.71;100653.94;6278511;22;46183;-59
2023/02/25 06:10:24;;;;;;;;;3.50;1.50;;;;;7.77;54.76;100662.69;6278759;22;45360;-59
2023/02/25 06:12:50;;;;;;;;;5.50;4.75;;;;;7.76;54.49;100668.78;6278458;22;45403;-59
2023/02/25 06:15:16;;;;;;;;;4.25;4.25;;;;;7.71;54.53;100660.09;6278421;22;45227;-58
2023/02/25 06:17:41;;;;;;;;;5.75;5.00;;;;;7.70;54.58;100665.31;6277573;22;45380;-58
2023/02/25 06:20:08;;;;;;;;;9.00;6.00;;;;;7.70;54.80;100668.81;6278463;22;45303;-58
2023/02/25 06:22:33;;;;;;;;;8.50;7.50;;;;;7.69;55.00;100668.81;6278686;22;45237;-58
2023/02/25 06:24:59;;;;;;;;;4.75;3.75;;;;;7.66;54.93;100669.69;6277648;22;45343;-58
2023/02/25 06:27:24;;;;;;;;;10.00;6.00;;;;;7.64;54.53;100666.22;6278158;22;45997;-58
2023/02/25 06:29:49;;;;;;;;;4.75;3.50;;;;;7.61;54.94;100669.69;6278664;22;45153;-58
2023/02/25 06:32:15;;;;;;;;;3.75;2.00;;;;;7.60;54.83;100669.72;6278043;22;45198;-58
2023/02/25 06:34:40;;;;;;;;;10.25;5.00;;;;;7.59;54.86;100670.59;6278516;22;45201;-58
2023/02/25 06:37:06;;;;;;;;;7.00;4.25;;;;;7.58;54.79;100671.44;6277947;22;45303;-58
2023/02/25 06:39:31;;;;;;;;;4.00;4.00;;;;;7.56;54.86;100666.22;6277847;22;45208;-58
2023/02/25 06:41:57;;;;;;;;;9.25;6.25;;;;;7.56;54.83;100679.31;6277682;22;45189;-58
2023/02/25 06:44:23;;;;;;;;;5.25;3.00;;;;;7.51;54.58;100675.84;6279276;22;45382;-58
2023/02/25 06:46:54;;;;;;;;;7.00;4.75;;;;;7.54;54.73;100681.06;6278743;22;46199;-58
2023/02/25 06:49:20;;;;;;;;;9.25;8.50;;;;;7.52;54.70;100688.06;6279827;22;45127;-58
2023/02/25 06:51:46;;;;;;;;;22.25;16.50;;;;;7.50;54.56;100676.72;6279475;22;45243;-58
2023/02/25 06:54:12;;;;;;;;;5.75;4.25;;;;;7.51;54.71;100691.53;6279261;22;45406;-58
2023/02/25 06:56:37;;;;;;;;;17.25;15.50;;;;;7.52;54.79;100697.63;6279264;22;46110;-58
2023/02/25 06:59:02;;;;;;;;;6.00;6.00;;;;;7.48;54.80;100695.03;6251580;22;45204;-58
2023/02/25 07:01:28;;;;;;;;;11.25;8.75;;;;;7.49;54.66;100704.59;6279497;22;45381;-58
2023/02/25 07:03:53;;;;;;;;;6.50;4.75;;;;;7.49;54.72;100703.72;6279501;22;45564;-58
2023/02/25 07:06:19;;;;;;;;;5.00;4.50;;;;;7.45;54.77;100694.16;6279716;22;45252;-58
2023/02/25 07:08:44;;;;;;;;;7.25;5.00;;;;;7.44;54.93;100706.34;6279330;22;45249;-58
2023/02/25 07:11:11;;;;;;;;;5.50;5.50;;;;;7.45;54.66;100707.22;6278860;22;45343;-58
2023/02/25 07:13:36;;;;;;;;;6.00;4.75;;;;;7.41;54.58;100703.75;6279139;22;45405;-58
2023/02/25 07:16:01;;;;;;;;;5.75;4.00;;;;;7.40;54.81;100715.06;6279113;22;45319;-58
2023/02/25 07:18:27;;;;;;;;;8.25;4.75;;;;;7.40;54.84;100714.22;6278374;22;45261;-58
2023/02/25 07:20:52;;;;;;;;;7.00;6.25;;;;;7.39;54.90;100712.47;6279661;22;45284;-58
2023/02/25 07:23:17;;;;;;;;;5.50;5.50;;;;;7.37;54.92;100712.47;6279215;22;45244;-58
2023/02/25 07:25:43;;;;;;;;;9.00;5.50;;;;;7.36;54.96;100718.56;6278683;22;45150;-58
2023/02/25 07:28:08;;;;;;;;;6.25;3.00;;;;;7.35;54.99;100722.06;6250702;22;45197;-58
2023/02/25 07:30:33;;;;;;;;;3.50;3.00;;;;;7.32;54.97;100712.47;6279429;22;45095;-58
2023/02/25 07:32:59;;;;;;;;;9.25;5.00;;;;;7.37;54.82;100714.19;6278238;22;45373;-58
2023/02/25 07:35:24;;;;;;;;;6.00;4.75;;;;;7.35;55.03;100719.44;6279341;22;45236;-58
2023/02/25 07:37:49;;;;;;;;;6.00;6.00;;;;;7.38;54.88;100724.66;6277127;22;45188;-58
2023/02/25 07:40:15;;;;;;;;;10.50;6.75;;;;;7.32;55.20;100711.63;6279400;22;45180;-58
2023/02/25 07:42:42;;;;;;;;;8.00;5.00;;;;;7.37;55.13;100727.28;6279284;22;45286;-58
2023/02/25 07:45:09;;;;;;;;;5.50;5.25;;;;;7.41;54.89;100724.66;6279270;22;45240;-58
2023/02/25 07:47:34;;;;;;;;;5.25;3.75;;;;;7.41;55.03;100726.38;6278709;22;45347;-59
2023/02/25 07:49:59;;;;;;;;;4.75;4.75;;;;;7.41;54.91;100727.28;6251598;22;45331;-59
2023/02/25 07:52:25;;;;;;;;;11.50;5.00;;;;;7.38;54.98;100721.19;6279111;22;45233;-59
2023/02/25 07:54:50;;;;;;;;;7.50;5.50;;;;;7.46;54.86;100737.75;6278914;22;46186;-59
2023/02/25 07:57:16;;;;;;;;;8.75;4.25;;;;;7.47;55.16;100740.34;6278363;22;45439;-59
2023/02/25 07:59:41;;;;;;;;;8.75;3.75;;;;;7.50;54.93;100742.09;6279248;22;45173;-59
2023/02/25 08:02:09;;;;;;;;;10.50;5.00;;;;;7.53;54.90;100735.97;6278872;22;45326;-59
2023/02/25 08:04:34;;;;;;;;;2.75;2.75;;;;;7.54;54.93;100733.34;6278700;22;47115;-59
2023/02/25 08:07:00;;;;;;;;;4.25;4.25;;;;;7.57;55.15;100732.47;6279005;22;45332;-59
2023/02/25 08:09:26;;;;;;;;;7.75;4.25;;;;;7.60;55.16;100746.41;6279574;22;45221;-59
2023/02/25 08:11:51;;;;;;;;;9.00;6.00;;;;;7.60;55.09;100748.19;6278925;22;45204;-59
2023/02/25 08:14:17;;;;;;;;;4.25;3.50;;;;;7.64;55.21;100757.75;6278834;22;46042;-59
2023/02/25 08:16:42;;;;;;;;;6.00;4.75;;;;;7.67;54.92;100746.41;6278895;22;45177;-59
2023/02/25 08:19:07;;;;;;;;;5.75;5.00;;;;;7.68;55.05;100746.41;6278621;22;45172;-58
2023/02/25 08:21:33;;;;;;;;;4.00;3.50;;;;;7.70;54.98;100755.13;6279071;22;45281;-59
2023/02/25 08:23:58;;;;;;;;;4.75;3.00;;;;;7.73;54.66;100765.56;6279216;22;45331;-60
2023/02/25 08:26:26;;;;;;;;;3.00;2.00;;;;;7.75;55.03;100761.22;6279061;22;45264;-62
2023/02/25 08:28:52;;;;;;;;;4.50;4.25;;;;;7.79;55.22;100755.09;6278823;22;45483;-63
2023/02/25 08:31:18;;;;;;;;;7.25;4.75;;;;;7.84;55.17;100762.09;6278479;22;45261;-62
2023/02/25 08:33:51;;;;;;;;;11.00;4.00;;;;;7.90;54.97;100756.81;6279030;22;45256;-61
2023/02/25 08:36:23;;;;;;;;;5.50;3.25;;;;;7.92;54.99;100749.84;6279043;22;45234;-62
2023/02/25 08:38:50;;;;;;;;;4.50;3.75;;;;;7.98;55.03;100752.44;6278486;22;45280;-61
2023/02/25 08:41:16;;;;;;;;;6.25;3.25;;;;;8.01;55.15;100747.16;6278309;22;45208;-60
2023/02/25 08:43:41;;;;;;;;;4.25;3.00;;;;;8.07;55.33;100759.38;6279026;22;45205;-60
2023/02/25 08:46:07;;;;;;;;;6.00;4.00;;;;;8.10;54.97;100744.53;6278733;22;45380;-59
2023/02/25 08:48:34;;;;;;;;;5.50;4.00;;;;;8.16;55.17;100748.88;6279068;22;45330;-61
2023/02/25 08:51:07;;;;;;;;;7.00;3.50;;;;;8.21;55.06;100739.25;6250944;22;45256;-61
2023/02/25 08:53:37;;;;;;;;;5.50;4.00;;;;;8.29;54.93;100745.31;6278794;22;46163;-61
2023/02/25 08:56:04;;;;;;;;;3.50;3.50;;;;;8.36;55.04;100751.41;6278090;22;45388;-61
2023/02/25 08:58:30;;;;;;;;;6.00;6.00;;;;;8.44;54.88;100747.00;6278987;22;45197;-59
2023/02/25 09:00:56;;;;;;;;;5.75;4.00;;;;;8.49;55.03;100741.78;6278873;22;45520;-60
2023/02/25 09:03:21;;;;;;;;;5.25;3.50;;;;;8.56;55.14;100748.69;6278710;22;45224;-59
2023/02/25 09:05:54;;;;;;;;;3.50;3.50;;;;;8.64;55.18;100748.69;6278701;22;45245;-59
2023/02/25 09:08:20;;;;;;;;;6.75;6.25;;;;;8.72;55.00;100738.16;6278642;22;45301;-59
2023/02/25 09:10:46;;;;;;;;;4.75;3.00;;;;;8.80;55.12;100741.56;6278533;22;45292;-63
2023/02/25 09:13:11;;;;;;;;;5.25;4.00;;;;;8.89;55.09;100743.25;6278438;22;47141;-62
2023/02/25 09:15:37;;;;;;;;;6.25;3.25;;;;;8.91;54.83;100723.16;6279062;22;45392;-59
2023/02/25 09:18:02;;;;;;;;;3.75;3.75;;;;;9.09;54.97;100743.09;6278084;22;45382;-59
2023/02/25 09:20:28;;;;;;;;;6.75;4.50;;;;;9.18;54.77;100731.69;6278970;22;45383;-59
2023/02/25 09:22:53;;;;;;;;;2.00;2.00;;;;;9.28;55.04;100735.94;6279045;22;46316;-59
2023/02/25 09:25:19;;;;;;;;;2.50;2.00;;;;;9.39;54.82;100739.34;6278802;22;45169;-59
2023/02/25 09:27:44;;;;;;;;;2.75;2.25;;;;;9.51;55.01;100740.13;6278589;22;45174;-59
2023/02/25 09:30:10;;;;;;;;;4.00;2.50;;;;;9.62;54.78;100735.63;6278343;22;45224;-63
2023/02/25 09:32:36;;;;;;;;;3.25;1.75;;;;;9.73;55.05;100736.38;6278349;22;45218;-65
2023/02/25 09:35:01;;;;;;;;;7.00;3.00;;;;;9.84;54.85;100732.78;6277941;22;45217;-63
2023/02/25 09:37:27;;;;;;;;;4.50;1.50;;;;;9.98;54.84;100736.13;6250023;22;45248;-63
2023/02/25 09:39:52;;;;;;;;;5.50;4.00;;;;;10.08;55.06;100718.50;6278133;22;45260;-64
2023/02/25 09:42:22;;;;;;;;;10.50;5.25;;;;;10.20;54.95;100726.22;6277238;22;46042;-67
2023/02/25 09:44:52;;;;;;;;;5.50;5.00;;;;;10.39;55.07;100732.13;6274885;22;45695;-65
2023/02/25 09:47:28;;;;;;;;;5.00;3.00;;;;;10.57;54.91;100730.16;6277978;22;45161;-65
2023/02/25 09:50:04;;;;;;;;;4.00;2.50;;;;;10.74;54.96;100727.25;6276501;22;45598;-65
2023/02/25 09:52:30;;;;;;;;;5.00;2.50;;;;;10.87;54.84;100726.19;6248796;22;47010;-65
2023/02/25 09:55:07;;;;;;;;;4.25;2.50;;;;;11.06;55.07;100726.75;6278473;22;45264;-66
2023/02/25 09:57:40;;;;;;;;;3.00;2.75;;;;;11.20;54.93;100721.25;6278120;22;45923;-66
2023/02/25 10:00:15;;;;;;;;;6.25;2.25;;;;;11.34;55.07;100722.78;6278551;22;45387;-64
2023/02/25 10:03:04;;;;;;;;;4.25;2.75;;;;;11.54;54.94;100727.69;6277034;22;46154;-64
2023/02/25 10:05:43;;;;;;;;;7.25;4.00;;;;;11.68;54.68;100730.94;6278343;22;45146;-64
2023/02/25 10:08:27;;;;;;;;;3.25;3.00;;;;;11.81;54.92;100734.22;6278401;22;45355;-64
2023/02/25 10:11:30;;;;;;;;;3.50;3.00;;;;;11.95;54.73;100739.19;6278260;22;45178;-64
2023/02/25 10:14:01;;;;;;;;;5.00;3.00;;;;;12.08;54.53;100731.94;6276935;22;45229;-63
2023/02/25 10:16:46;;;;;;;;;3.50;3.00;;;;;12.18;54.62;100736.13;6278512;22;45256;-64
2023/02/25 10:19:12;;;;;;;;;5.50;3.75;;;;;12.27;54.62;100735.06;6270049;22;45257;-64
2023/02/25 10:21:59;;;;;;;;;3.50;3.00;;;;;12.35;54.30;100730.50;6278091;22;45395;-64
2023/02/25 10:24:47;;;;;;;;;5.25;5.00;;;;;12.46;54.28;100729.41;6278494;22;45468;-64
2023/02/25 10:27:19;;;;;;;;;4.75;4.50;;;;;12.52;54.32;100734.53;6275819;22;45236;-64
2023/02/25 10:29:49;;;;;;;;;3.25;3.25;;;;;12.59;54.12;100727.34;6278682;22;45172;-64
2023/02/25 10:32:27;;;;;;;;;2.75;2.00;;;;;12.66;54.16;100724.53;6276714;22;45252;-64
2023/02/25 10:34:56;;;;;;;;;19.50;12.50;;;;;12.77;53.93;100726.91;6277796;22;45982;-64
2023/02/25 10:37:40;;;;;;;;;2.50;2.00;;;;;12.81;53.70;100718.03;6277607;22;45263;-64
2023/02/25 10:40:13;;;;;;;;;3.00;3.00;;;;;12.92;53.82;100720.41;6278852;22;45177;-64
2023/02/25 10:42:38;;;;;;;;;4.00;2.25;;;;;12.99;53.56;100721.13;6278401;22;45168;-65
2023/02/25 10:45:10;;;;;;;;;3.75;2.25;;;;;13.02;53.48;100715.78;6302461;22;48076;-64
2023/02/25 10:47:40;;;;;;;;;5.00;2.00;;;;;13.09;53.55;100717.34;6277426;22;45341;-64
2023/02/25 10:50:13;;;;;;;;;3.00;2.00;;;;;13.14;53.47;100711.97;6278431;22;45222;-64
2023/02/25 10:52:54;;;;;;;;;2.75;2.25;;;;;13.17;53.38;100720.66;6276425;22;45721;-64
2023/02/25 10:55:38;;;;;;;;;4.50;3.50;;;;;13.17;53.25;100715.41;6278392;22;45301;-64
2023/02/25 10:58:04;;;;;;;;;2.50;2.00;;;;;13.20;53.07;100721.50;6277502;22;45200;-64
2023/02/25 11:00:33;;;;;;;;;2.25;2.00;;;;;13.19;52.79;100717.13;6278148;22;45369;-64
2023/02/25 11:03:00;;;;;;;;;5.75;2.75;;;;;13.21;52.65;100710.91;6277323;22;45484;-64
2023/02/25 11:05:40;;;;;;;;;3.75;3.50;;;;;13.21;52.64;100699.50;6277867;22;46474;-64
2023/02/25 11:08:26;;;;;;;;;3.50;3.00;;;;;13.18;52.79;100705.69;6277336;22;45240;-66
2023/02/25 11:11:22;;;;;;;;;2.00;2.00;;;;;13.14;52.29;100702.28;6277812;22;45295;-64
2023/02/25 11:14:01;;;;;;;;;2.25;2.25;;;;;13.13;52.27;100697.03;6254519;22;45294;-65
2023/02/25 11:16:29;;;;;;;;;2.00;0.00;;;;;13.11;52.38;100707.63;6277826;22;46608;-65
2023/02/25 11:18:58;;;;;;;;;1.00;1.00;;;;;13.07;52.28;100703.34;6277362;22;45321;-66
2023/02/25 11:21:38;;;;;;;;;3.75;1.50;;;;;13.01;52.09;100698.22;6250186;22;45229;-64
2023/02/25 11:24:36;;;;;;;;;4.25;2.75;;;;;12.95;52.00;100699.22;6277905;22;45210;-64
2023/02/25 11:27:04;;;;;;;;;3.00;3.00;;;;;12.89;51.70;100701.16;6277736;22;45345;-64
2023/02/25 11:29:37;;;;;;;;;9.00;5.00;;;;;12.83;51.67;100695.13;6277758;22;45175;-64
2023/02/25 11:32:14;;;;;;;;;1.25;1.25;;;;;12.83;51.68;100704.81;6279200;22;45287;-64
2023/02/25 11:35:07;;;;;;;;;3.75;2.50;;;;;12.71;51.48;100691.94;6279244;22;45103;-63
2023/02/25 11:37:40;;;;;;;;;2.00;2.00;;;;;12.76;51.26;100700.59;6269071;22;45384;-63